Time;durP1;ratioP1;P1;durP2;ratioP2;P2;SDS_P1;SDS_P2;PMS_P1;PMS_P2;Temp;Humidity;BMP_temperature;BMP_pressure;BME280_temperature;BME280_humidity;BME280_pressure;Samples;Min_cycle;Max_cycle;Signal;HPM_P1;HPM_P2
2021/12/26 00:00:26;;;;;;;20.02;16.92;;;;;;;9.47;74.16;97642.00;5094364;28;20404;-51
2021/12/26 00:02:52;;;;;;;19.95;15.05;;;;;;;9.51;74.12;97651.03;5095707;28;20059;-51
2021/12/26 00:05:19;;;;;;;14.77;11.57;;;;;;;9.52;73.73;97652.66;5094300;28;20020;-51
2021/12/26 00:07:44;;;;;;;13.70;10.73;;;;;;;9.63;73.68;97653.72;5094215;28;20028;-50
2021/12/26 00:10:13;;;;;;;16.42;12.27;;;;;;;9.78;73.07;97659.41;5095574;28;20020;-51
2021/12/26 00:12:39;;;;;;;17.02;12.10;;;;;;;9.93;72.70;97659.00;5095504;28;20020;-50
2021/12/26 00:15:06;;;;;;;16.58;11.07;;;;;;;10.01;72.83;97658.69;5095396;28;20026;-51
2021/12/26 00:17:32;;;;;;;17.40;12.05;;;;;;;10.15;72.75;97659.31;5095351;28;20028;-51
2021/12/26 00:19:58;;;;;;;18.45;14.73;;;;;;;10.21;72.04;97666.28;5095269;28;20478;-51
2021/12/26 00:22:24;;;;;;;17.10;11.65;;;;;;;10.24;71.31;97654.56;5095266;28;20115;-50
2021/12/26 00:24:51;;;;;;;18.70;13.32;;;;;;;10.33;71.42;97656.66;5095196;28;20024;-51
2021/12/26 00:27:19;;;;;;;348.98;289.35;;;;;;;10.25;70.64;97648.28;5095158;28;20036;-51
2021/12/26 00:29:47;;;;;;;52.90;42.70;;;;;;;9.95;70.67;97651.72;5095132;28;20066;-51
2021/12/26 00:32:13;;;;;;;100.63;89.85;;;;;;;9.76;71.07;97648.34;5094889;28;20095;-51
2021/12/26 00:34:39;;;;;;;27.27;18.45;;;;;;;9.58;70.62;97657.81;5095052;28;20059;-50
2021/12/26 00:37:06;;;;;;;17.95;14.32;;;;;;;9.44;70.94;97660.75;5094974;28;20016;-50
2021/12/26 00:39:34;;;;;;;14.68;11.05;;;;;;;9.40;71.60;97673.53;5094971;28;20028;-49
2021/12/26 00:42:00;;;;;;;16.60;12.25;;;;;;;9.34;71.65;97659.47;5093624;28;20028;-50
2021/12/26 00:44:26;;;;;;;14.90;12.27;;;;;;;9.23;71.62;97657.56;5094896;28;20020;-51
2021/12/26 00:46:53;;;;;;;15.40;11.20;;;;;;;9.06;71.45;97653.94;5094794;28;20027;-50
2021/12/26 00:49:21;;;;;;;21.20;15.07;;;;;;;8.91;71.62;97644.56;5094840;28;20036;-51
2021/12/26 00:51:47;;;;;;;17.35;13.00;;;;;;;8.79;71.87;97646.28;5093345;28;20024;-50
2021/12/26 00:54:13;;;;;;;17.17;11.35;;;;;;;8.68;72.11;97655.63;5094656;28;20031;-50
2021/12/26 00:56:39;;;;;;;17.67;12.48;;;;;;;8.63;72.41;97652.84;5093271;28;20025;-50
2021/12/26 00:59:05;;;;;;;13.35;11.57;;;;;;;8.65;72.18;97661.28;5094462;28;20436;-50
2021/12/26 01:01:31;;;;;;;14.57;12.00;;;;;;;8.57;71.85;97653.69;5094553;28;20464;-50
2021/12/26 01:03:57;;;;;;;16.70;12.13;;;;;;;8.55;72.41;97655.72;5094491;28;20028;-50
2021/12/26 01:06:23;;;;;;;17.80;12.88;;;;;;;8.67;72.70;97654.06;5093691;28;20028;-50
2021/12/26 01:08:51;;;;;;;16.48;12.32;;;;;;;8.82;72.81;97656.34;5094400;28;20102;-50
2021/12/26 01:11:37;;;;;;;21.35;10.88;;;;;;;8.98;72.00;97655.00;5094273;28;20073;-50
2021/12/26 01:14:04;;;;;;;;;;;;;;;8.99;71.79;97659.19;5094769;28;20036;-50
2021/12/26 01:16:30;;;;;;;17.52;11.18;;;;;;;8.91;72.12;97664.69;5094250;28;19912;-50
2021/12/26 01:19:03;;;;;;;12.98;11.05;;;;;;;8.96;71.62;97670.91;5092813;28;20058;-50
2021/12/26 01:21:29;;;;;;;14.95;10.65;;;;;;;8.95;71.55;97666.69;5094192;28;20115;-50
2021/12/26 01:23:58;;;;;;;13.93;10.73;;;;;;;9.11;71.51;97664.53;5094102;28;20028;-50
2021/12/26 01:26:25;;;;;;;13.00;10.00;;;;;;;9.43;71.20;97667.03;5094098;28;20016;-50
2021/12/26 01:28:51;;;;;;;13.90;10.85;;;;;;;9.74;70.39;97673.97;5093954;28;20054;-50
2021/12/26 01:31:19;;;;;;;13.05;9.93;;;;;;;9.84;69.69;97662.94;5093981;28;20052;-51
2021/12/26 01:33:49;;;;;;;14.13;11.00;;;;;;;9.70;69.09;97670.97;5093737;28;20401;-50
2021/12/26 01:36:15;;;;;;;12.98;10.77;;;;;;;9.47;69.70;97663.75;5094183;28;20166;-51
2021/12/26 01:38:41;;;;;;;47.20;41.80;;;;;;;9.23;70.10;97670.66;5093870;28;20494;-50
2021/12/26 01:41:10;;;;;;;19.30;15.43;;;;;;;9.16;70.18;97675.16;5093644;28;20506;-49
2021/12/26 01:43:38;;;;;;;17.38;11.13;;;;;;;9.23;70.14;97665.41;5093731;28;20027;-49
2021/12/26 01:46:04;;;;;;;14.80;12.73;;;;;;;9.32;69.77;97665.94;5093639;28;20032;-50
2021/12/26 01:48:30;;;;;;;14.57;10.75;;;;;;;9.34;69.24;97669.94;5093671;28;20016;-50
2021/12/26 01:50:56;;;;;;;15.38;12.00;;;;;;;9.34;69.41;97674.38;5093527;28;20024;-50
2021/12/26 01:53:26;;;;;;;14.52;11.35;;;;;;;9.26;69.42;97677.28;5093608;28;20020;-50
2021/12/26 01:55:53;;;;;;;14.95;10.82;;;;;;;9.28;69.71;97680.50;5093441;28;20035;-50
2021/12/26 01:58:23;;;;;;;18.92;14.77;;;;;;;9.23;69.52;97688.19;5093485;28;20055;-50
2021/12/26 02:01:12;;;;;;;13.02;10.40;;;;;;;9.19;69.72;97682.56;5093337;28;20370;-50
2021/12/26 02:03:40;;;;;;;14.75;11.20;;;;;;;9.10;69.85;97691.72;5093351;28;20110;-50
2021/12/26 02:06:07;;;;;;;15.27;10.55;;;;;;;9.09;70.10;97703.19;5091971;28;20517;-50
2021/12/26 02:08:34;;;;;;;17.35;10.95;;;;;;;9.06;70.13;97706.25;5091941;28;20024;-50
2021/12/26 02:11:02;;;;;;;16.80;10.88;;;;;;;9.20;70.33;97702.50;5091822;28;20036;-50
2021/12/26 02:13:29;;;;;;;21.23;11.40;;;;;;;9.42;69.44;97699.47;5093163;28;20012;-50
2021/12/26 02:15:56;;;;;;;12.10;9.57;;;;;;;9.50;69.61;97699.22;5093077;28;20020;-50
2021/12/26 02:18:22;;;;;;;12.13;10.38;;;;;;;9.55;69.00;97701.97;5092022;28;20069;-50
2021/12/26 02:23:30;;;;;;;13.75;10.90;;;;;;;9.24;68.85;97700.28;5093064;28;20028;-50
2021/12/26 02:28:38;;;;;;;15.82;11.02;;;;;;;9.06;69.34;97704.44;5092911;28;20509;-50
2021/12/26 02:31:05;;;;;;;16.23;12.00;;;;;;;8.95;69.63;97703.34;5092750;28;20024;-50
2021/12/26 02:33:31;;;;;;;14.43;11.82;;;;;;;8.84;70.19;97698.78;5092593;28;20040;-50
2021/12/26 02:35:57;;;;;;;17.00;11.25;;;;;;;9.06;69.87;97699.22;5091408;28;20021;-50
2021/12/26 02:38:24;;;;;;;12.80;10.13;;;;;;;9.29;69.12;97695.16;5091406;28;20114;-50
2021/12/26 02:40:51;;;;;;;10.50;9.40;;;;;;;9.33;68.94;97696.34;5092561;28;20020;-50
2021/12/26 02:43:20;;;;;;;12.18;9.80;;;;;;;9.38;69.23;97699.13;5092574;28;20020;-50
2021/12/26 02:45:46;;;;;;;11.75;9.35;;;;;;;9.48;68.85;97686.31;5091206;28;20020;-50
2021/12/26 02:48:13;;;;;;;15.43;9.35;;;;;;;9.54;68.73;97690.69;5091200;28;20024;-50
2021/12/26 02:50:41;;;;;;;19.50;17.30;;;;;;;9.61;68.51;97688.00;5092774;28;20024;-51
2021/12/26 02:53:10;;;;;;;12.75;9.60;;;;;;;9.66;67.96;97696.00;5092423;28;20049;-50
2021/12/26 02:55:36;;;;;;;15.15;9.35;;;;;;;9.69;67.88;97697.38;5092409;28;20019;-50
2021/12/26 02:58:05;;;;;;;35.50;31.15;;;;;;;9.63;67.21;97693.03;5092664;28;20394;-51
2021/12/26 03:00:40;;;;;;;15.05;11.18;;;;;;;9.57;67.42;97694.69;5092271;28;20032;-51
2021/12/26 03:03:08;;;;;;;18.15;11.68;;;;;;;9.57;67.57;97702.53;5092398;28;20024;-50
2021/12/26 03:05:37;;;;;;;15.77;9.82;;;;;;;9.64;67.81;97703.28;5092309;28;20028;-49
2021/12/26 03:08:04;;;;;;;13.65;11.30;;;;;;;9.75;67.50;97699.91;5092293;28;20028;-50
2021/12/26 03:10:30;;;;;;;20.05;14.57;;;;;;;9.78;67.94;97696.88;5092179;28;20028;-50
2021/12/26 03:13:01;;;;;;;12.07;9.73;;;;;;;9.88;67.57;97696.34;5090856;28;20574;-50
2021/12/26 03:15:29;;;;;;;14.32;9.90;;;;;;;9.97;67.74;97692.41;5092113;28;20111;-50
2021/12/26 03:17:55;;;;;;;19.02;10.23;;;;;;;10.18;67.32;97698.19;5092084;28;20024;-50
2021/12/26 03:20:24;;;;;;;19.38;17.30;;;;;;;10.39;66.49;97697.72;5091998;28;20039;-49
2021/12/26 03:22:50;;;;;;;13.32;10.30;;;;;;;10.42;65.96;97704.34;5090995;28;20115;-50
2021/12/26 03:25:22;;;;;;;13.43;10.10;;;;;;;10.25;65.92;97711.22;5091935;28;20055;-50
2021/12/26 03:27:50;;;;;;;13.23;9.88;;;;;;;10.19;66.08;97702.41;5092000;28;20062;-50
2021/12/26 03:30:24;;;;;;;10.80;9.70;;;;;;;10.28;65.96;97705.53;5091484;28;20099;-50
2021/12/26 03:32:50;;;;;;;25.50;20.20;;;;;;;10.01;65.97;97708.50;5091759;28;20044;-50
2021/12/26 03:35:18;;;;;;;19.67;14.27;;;;;;;10.00;66.98;97712.16;5090571;28;20119;-50
2021/12/26 03:37:43;;;;;;;16.50;13.40;;;;;;;10.28;66.61;97711.59;5091856;28;20024;-51
2021/12/26 03:40:10;;;;;;;11.90;10.13;;;;;;;10.37;65.52;97709.47;5091728;28;20524;-51
2021/12/26 03:42:37;;;;;;;13.18;10.20;;;;;;;10.25;64.74;97711.22;5091833;28;20046;-50
2021/12/26 03:45:05;;;;;;;13.30;11.10;;;;;;;10.02;65.31;97714.53;5090493;28;20028;-51
2021/12/26 03:47:32;;;;;;;12.13;10.55;;;;;;;9.93;65.85;97714.03;5091770;28;20070;-50
2021/12/26 03:49:58;;;;;;;53.97;45.55;;;;;;;9.91;65.98;97711.63;5091758;28;20020;-50
2021/12/26 03:52:25;;;;;;;78.47;70.20;;;;;;;9.91;66.25;97705.59;5091722;28;20028;-50
2021/12/26 03:54:52;;;;;;;15.93;12.65;;;;;;;9.88;66.31;97706.03;5091788;28;20112;-51
2021/12/26 03:57:19;;;;;;;14.25;11.93;;;;;;;9.91;66.29;97702.97;5091677;28;20023;-51
2021/12/26 03:59:45;;;;;;;12.30;10.27;;;;;;;9.88;66.35;97706.03;5091590;28;20028;-51
2021/12/26 04:02:11;;;;;;;12.23;10.05;;;;;;;9.79;66.55;97706.31;5091667;28;20016;-50
2021/12/26 04:04:37;;;;;;;15.27;11.45;;;;;;;9.72;66.71;97703.00;5091651;28;20499;-50
2021/12/26 04:07:03;;;;;;;22.83;16.17;;;;;;;9.70;66.62;97707.66;5091581;28;20035;-50
2021/12/26 04:09:29;;;;;;;13.55;11.15;;;;;;;9.70;66.74;97705.03;5091568;28;20401;-50
2021/12/26 04:11:55;;;;;;;13.82;11.10;;;;;;;9.74;66.86;97705.41;5091578;28;20024;-49
2021/12/26 04:14:21;;;;;;;16.08;11.18;;;;;;;9.68;66.59;97707.06;5091516;28;20031;-50
2021/12/26 04:16:47;;;;;;;13.32;9.55;;;;;;;9.80;66.99;97707.94;5090177;28;20016;-50
2021/12/26 04:19:13;;;;;;;13.07;10.70;;;;;;;9.86;66.66;97714.13;5091410;28;20030;-50
2021/12/26 04:21:38;;;;;;;15.73;9.80;;;;;;;9.86;66.56;97716.75;5091449;28;20482;-50
2021/12/26 04:24:05;;;;;;;11.90;10.25;;;;;;;9.85;66.72;97723.00;5091492;28;20025;-50
2021/12/26 04:26:31;;;;;;;11.98;9.85;;;;;;;9.87;66.82;97720.94;5091362;28;20091;-50
2021/12/26 04:28:57;;;;;;;10.65;8.88;;;;;;;9.91;66.65;97726.56;5091378;28;20103;-51
2021/12/26 04:31:23;;;;;;;12.95;9.85;;;;;;;9.93;66.48;97733.19;5091417;28;20436;-50
2021/12/26 04:33:50;;;;;;;14.25;9.70;;;;;;;9.93;66.68;97730.56;5091139;28;20136;-50
2021/12/26 04:36:17;;;;;;;12.38;10.38;;;;;;;9.98;66.21;97733.34;5091314;28;20060;-51
2021/12/26 04:38:43;;;;;;;11.10;9.13;;;;;;;9.98;66.37;97735.16;5091278;28;20404;-50
2021/12/26 04:41:11;;;;;;;16.08;9.25;;;;;;;10.07;66.26;97733.81;5091761;28;20398;-51
2021/12/26 04:43:37;;;;;;;12.25;9.05;;;;;;;10.25;66.04;97735.63;5094862;28;20028;-50
2021/12/26 04:46:07;;;;;;;13.68;9.68;;;;;;;10.46;65.26;97739.59;5094872;28;20063;-50
2021/12/26 04:48:39;;;;;;;15.13;10.55;;;;;;;10.58;65.01;97739.66;5094807;28;20028;-51
2021/12/26 04:51:07;;;;;;;14.00;8.88;;;;;;;10.64;64.81;97737.97;5093457;28;20039;-51
2021/12/26 04:53:34;;;;;;;11.52;8.85;;;;;;;10.57;64.84;97740.69;5094783;28;20017;-51
2021/12/26 04:56:00;;;;;;;11.40;8.57;;;;;;;10.46;64.56;97741.44;5076469;28;20028;-50
2021/12/26 04:58:26;;;;;;;10.93;8.68;;;;;;;10.30;64.80;97751.53;5094624;28;20085;-50
2021/12/26 05:00:52;;;;;;;13.68;10.07;;;;;;;10.20;65.46;97745.97;5094452;28;20489;-50
2021/12/26 05:03:18;;;;;;;11.98;9.35;;;;;;;10.17;65.17;97746.41;5093204;28;20035;-50
2021/12/26 05:05:44;;;;;;;12.55;9.90;;;;;;;10.12;65.23;97748.88;5094453;28;20028;-51
2021/12/26 05:08:12;;;;;;;10.23;8.93;;;;;;;10.23;65.34;97747.34;5094533;28;20074;-51
2021/12/26 05:10:39;;;;;;;14.63;10.27;;;;;;;10.31;65.24;97737.38;5094389;28;20403;-50
2021/12/26 05:13:05;;;;;;;11.00;8.98;;;;;;;10.38;65.10;97739.91;5093052;28;20046;-51
2021/12/26 05:15:32;;;;;;;15.35;9.35;;;;;;;10.54;64.73;97733.25;5094288;28;20047;-50
2021/12/26 05:17:58;;;;;;;14.55;8.85;;;;;;;10.66;64.36;97731.44;5094249;28;20020;-50
2021/12/26 05:20:26;;;;;;;11.68;8.93;;;;;;;10.62;63.95;97740.78;5092733;28;20020;-51
2021/12/26 05:22:54;;;;;;;9.63;8.48;;;;;;;10.45;63.90;97731.97;5094161;28;20020;-51
2021/12/26 05:25:21;;;;;;;12.38;9.93;;;;;;;10.21;63.91;97737.09;5094095;28;20401;-51
2021/12/26 05:27:49;;;;;;;15.23;10.18;;;;;;;9.91;64.70;97739.66;5094065;28;20143;-50
2021/12/26 05:30:17;;;;;;;17.42;10.77;;;;;;;9.65;65.17;97740.75;5092658;28;20032;-51
2021/12/26 05:32:45;;;;;;;15.13;13.10;;;;;;;9.44;66.17;97741.94;5093699;28;20429;-51
2021/12/26 05:35:13;;;;;;;13.02;10.48;;;;;;;9.30;66.68;97739.47;5093970;28;20460;-51
2021/12/26 05:37:39;;;;;;;12.95;10.38;;;;;;;9.28;66.89;97738.88;5093911;28;20024;-51
2021/12/26 05:40:08;;;;;;;15.02;12.05;;;;;;;9.23;67.31;97740.53;5093736;28;20120;-51
2021/12/26 05:42:34;;;;;;;15.27;10.57;;;;;;;9.27;67.36;97746.94;5093817;28;20452;-51
2021/12/26 05:45:01;;;;;;;11.68;9.52;;;;;;;9.32;67.30;97736.66;5093785;28;20020;-51
2021/12/26 05:47:27;;;;;;;23.90;20.92;;;;;;;9.36;67.31;97737.81;5093708;28;20417;-50
2021/12/26 05:49:53;;;;;;;17.08;10.65;;;;;;;9.22;67.13;97742.38;5093576;28;20028;-50
2021/12/26 05:52:19;;;;;;;17.40;12.10;;;;;;;8.90;67.69;97745.03;5093402;28;20455;-51
2021/12/26 05:54:47;;;;;;;12.35;10.27;;;;;;;8.79;68.24;97750.94;5093586;28;20020;-51
2021/12/26 05:57:13;;;;;;;15.05;12.45;;;;;;;8.84;68.87;97748.50;5093493;28;20024;-51
2021/12/26 05:59:39;;;;;;;15.57;10.40;;;;;;;8.91;68.73;97749.22;5093360;28;20095;-50
2021/12/26 06:02:05;;;;;;;15.15;10.38;;;;;;;8.97;69.02;97751.03;5093334;28;20127;-50
2021/12/26 06:04:31;;;;;;;19.75;16.48;;;;;;;9.18;68.65;97752.47;5092066;28;20032;-50
2021/12/26 06:06:58;;;;;;;16.27;11.23;;;;;;;9.54;68.36;97750.94;5093298;28;20401;-50
2021/12/26 06:09:24;;;;;;;15.55;11.68;;;;;;;9.72;67.58;97744.13;5093268;28;20028;-50
2021/12/26 06:11:50;;;;;;;15.63;10.27;;;;;;;9.80;66.99;97746.44;5091892;28;20035;-51
2021/12/26 06:14:16;;;;;;;12.77;10.02;;;;;;;9.72;66.33;97739.66;5093148;28;20020;-50
2021/12/26 06:16:42;;;;;;;27.02;23.35;;;;;;;9.38;66.97;97741.81;5091794;28;20046;-50
2021/12/26 06:19:08;;;;;;;13.80;12.38;;;;;;;8.90;68.04;97744.22;5091688;28;20115;-50
2021/12/26 06:21:34;;;;;;;17.67;13.20;;;;;;;8.53;69.17;97751.91;5093030;28;20499;-51
2021/12/26 06:24:00;;;;;;;13.23;10.73;;;;;;;8.53;69.44;97749.28;5091656;28;20039;-51
2021/12/26 06:26:27;;;;;;;15.35;13.07;;;;;;;8.69;69.25;97742.75;5092933;28;20059;-49
2021/12/26 06:28:53;;;;;;;14.77;11.13;;;;;;;8.78;69.08;97744.91;5092876;28;20027;-51
2021/12/26 06:31:19;;;;;;;14.13;10.88;;;;;;;8.76;68.98;97735.66;5092811;28;20028;-50
2021/12/26 06:33:46;;;;;;;13.02;9.98;;;;;;;8.68;69.03;97739.34;5092597;28;20506;-51
2021/12/26 06:36:13;;;;;;;22.73;14.93;;;;;;;8.60;69.14;97743.00;5091402;28;20383;-51
2021/12/26 06:38:40;;;;;;;16.23;12.85;;;;;;;8.48;69.35;97736.03;5092714;28;20039;-50
2021/12/26 06:41:07;;;;;;;15.40;11.32;;;;;;;8.51;69.87;97744.28;5092568;28;20080;-51
2021/12/26 06:43:34;;;;;;;14.65;12.00;;;;;;;8.58;69.56;97749.47;5091304;28;20055;-51
2021/12/26 06:46:00;;;;;;;17.17;15.38;;;;;;;8.54;69.43;97751.69;5092566;28;20431;-51
2021/12/26 06:48:27;;;;;;;13.00;11.48;;;;;;;8.44;69.63;97755.78;5092484;28;20562;-51
2021/12/26 06:50:54;;;;;;;13.50;10.85;;;;;;;8.43;70.04;97762.84;5091148;28;20032;-51
2021/12/26 06:53:20;;;;;;;14.95;11.60;;;;;;;8.46;69.89;97764.22;5092438;28;20024;-50
2021/12/26 06:55:47;;;;;;;16.17;13.40;;;;;;;8.45;69.85;97763.44;5092436;28;20024;-50
2021/12/26 06:58:14;;;;;;;15.45;11.15;;;;;;;8.40;70.17;97750.94;5092355;28;20024;-51
2021/12/26 07:00:40;;;;;;;14.43;11.20;;;;;;;8.43;69.92;97757.59;5092268;28;20070;-51
2021/12/26 07:03:07;;;;;;;14.65;12.27;;;;;;;8.33;69.88;97746.75;5092306;28;20024;-50
2021/12/26 07:05:33;;;;;;;15.27;13.35;;;;;;;8.23;70.64;97743.78;5090300;28;20020;-50
2021/12/26 07:07:59;;;;;;;13.98;11.80;;;;;;;8.19;70.56;97756.47;5092237;28;20050;-51
2021/12/26 07:10:24;;;;;;;17.73;13.90;;;;;;;8.17;71.21;97756.69;5092219;28;20056;-50
2021/12/26 07:12:50;;;;;;;11.80;9.85;;;;;;;8.29;70.60;97756.00;5090841;28;20510;-50
2021/12/26 07:15:17;;;;;;;15.15;10.43;;;;;;;8.52;70.46;97755.53;5092084;28;20070;-51
2021/12/26 07:17:43;;;;;;;14.70;11.07;;;;;;;8.73;69.99;97757.00;5092136;28;20428;-50
2021/12/26 07:20:11;;;;;;;16.35;10.70;;;;;;;8.67;69.85;97757.84;5090653;28;20021;-50
2021/12/26 07:22:38;;;;;;;18.67;12.05;;;;;;;8.72;69.99;97763.25;5090691;28;20024;-51
2021/12/26 07:25:06;;;;;;;12.65;9.98;;;;;;;8.97;69.41;97758.06;5091973;28;20028;-51
2021/12/26 07:27:32;;;;;;;14.20;10.00;;;;;;;9.03;68.91;97759.81;5092021;28;20016;-50
2021/12/26 07:30:02;;;;;;;27.45;21.52;;;;;;;8.95;68.72;97754.84;5091984;28;20123;-50
2021/12/26 07:32:28;;;;;;;25.58;17.98;;;;;;;8.94;70.16;97758.50;5091701;28;20062;-51
2021/12/26 07:34:54;;;;;;;35.90;32.10;;;;;;;9.26;70.73;97766.31;5090656;28;20028;-50
2021/12/26 07:37:20;;;;;;;27.13;24.27;;;;;;;9.67;70.87;97755.22;5090516;28;20501;-51
2021/12/26 07:39:46;;;;;;;15.70;14.02;;;;;;;9.99;69.58;97757.72;5090514;28;20027;-51
2021/12/26 07:42:12;;;;;;;20.45;17.00;;;;;;;10.19;68.27;97766.13;5092103;28;20020;-51
2021/12/26 07:44:38;;;;;;;14.52;11.55;;;;;;;10.45;67.34;97766.06;5090542;28;20054;-51
2021/12/26 07:47:07;;;;;;;19.85;15.85;;;;;;;10.63;66.39;97758.16;5091810;28;20444;-51
2021/12/26 07:49:33;;;;;;;14.38;10.45;;;;;;;10.72;65.45;97764.66;5091793;28;20024;-51
2021/12/26 07:51:59;;;;;;;13.82;9.63;;;;;;;10.71;65.13;97770.16;5092046;28;20020;-50
2021/12/26 07:54:26;;;;;;;13.88;10.15;;;;;;;10.72;64.81;97774.38;5091776;28;20027;-50
2021/12/26 07:56:54;;;;;;;18.67;13.90;;;;;;;10.70;64.62;97771.97;5091831;28;20505;-51
2021/12/26 07:59:19;;;;;;;12.55;10.88;;;;;;;10.73;64.30;97773.38;5091682;28;20021;-50
2021/12/26 08:01:46;;;;;;;10.63;9.45;;;;;;;10.72;63.95;97779.63;5090359;28;20412;-51
2021/12/26 08:04:14;;;;;;;11.90;10.43;;;;;;;10.65;63.64;97774.47;5091644;28;20031;-51
2021/12/26 08:06:41;;;;;;;10.77;8.73;;;;;;;10.65;63.95;97768.44;5090294;28;20051;-51
2021/12/26 08:09:07;;;;;;;468.83;412.15;;;;;;;10.76;63.72;97765.03;5090261;28;20032;-51
2021/12/26 08:11:34;;;;;;;79.13;63.72;;;;;;;10.86;63.40;97769.75;5091612;28;20103;-51
2021/12/26 08:14:00;;;;;;;94.07;84.07;;;;;;;10.96;63.51;97770.00;5091541;28;20158;-50
2021/12/26 08:16:26;;;;;;;29.42;22.30;;;;;;;11.07;62.90;97773.69;5094136;28;20020;-51
2021/12/26 08:18:53;;;;;;;17.13;11.75;;;;;;;11.14;62.59;97766.47;5095495;28;20026;-51
2021/12/26 08:21:19;;;;;;;11.88;9.88;;;;;;;11.17;62.15;97763.41;5095276;28;20020;-51
2021/12/26 08:23:46;;;;;;;12.40;10.43;;;;;;;11.18;62.19;97770.25;5094150;28;20038;-52
2021/12/26 08:26:13;;;;;;;12.13;10.82;;;;;;;11.22;61.90;97763.53;5095250;28;20063;-51
2021/12/26 08:28:39;;;;;;;12.90;10.43;;;;;;;11.40;62.02;97755.53;5095292;28;20493;-51
2021/12/26 08:31:05;;;;;;;14.63;11.55;;;;;;;11.95;61.29;97756.19;5095162;28;20024;-51
2021/12/26 08:33:31;;;;;;;16.00;10.57;;;;;;;12.06;60.43;97757.22;5093624;28;20510;-51
2021/12/26 08:35:58;;;;;;;13.70;10.10;;;;;;;12.21;59.87;97756.72;5095114;28;20028;-51
2021/12/26 08:38:24;;;;;;;10.65;8.82;;;;;;;12.41;59.43;97761.56;5095037;28;20481;-51
2021/12/26 08:40:54;;;;;;;13.43;8.82;;;;;;;12.41;58.67;97765.00;5093586;28;20074;-51
2021/12/26 08:43:20;;;;;;;9.88;8.88;;;;;;;12.26;59.29;97760.25;5093639;28;20024;-51
2021/12/26 08:45:48;;;;;;;13.63;9.55;;;;;;;12.21;58.95;97765.41;5093648;28;20020;-53
2021/12/26 08:48:14;;;;;;;10.85;8.32;;;;;;;12.16;58.96;97770.56;5094910;28;20028;-52
2021/12/26 08:50:42;;;;;;;22.55;20.15;;;;;;;11.99;59.08;97766.03;5094787;28;20461;-51
2021/12/26 08:53:09;;;;;;;13.82;10.73;;;;;;;11.83;59.69;97772.00;5094779;28;20023;-51
2021/12/26 08:55:35;;;;;;;11.70;9.23;;;;;;;11.85;59.99;97772.56;5094704;28;20026;-51
2021/12/26 08:58:01;;;;;;;15.73;10.70;;;;;;;11.91;59.76;97771.66;5094739;28;20103;-51
2021/12/26 09:00:29;;;;;;;9.85;8.85;;;;;;;12.00;59.81;97766.84;5094514;28;20023;-51
2021/12/26 09:02:55;;;;;;;13.30;9.13;;;;;;;12.17;59.88;97772.97;5094584;28;20516;-51
2021/12/26 09:05:21;;;;;;;11.93;10.63;;;;;;;12.24;59.37;97780.72;5094475;28;20054;-52
2021/12/26 09:07:46;;;;;;;16.52;13.48;;;;;;;12.21;59.42;97780.38;5094518;28;20040;-52
2021/12/26 09:10:13;;;;;;;10.02;8.20;;;;;;;12.32;58.92;97782.19;5094378;28;20021;-51
2021/12/26 09:12:40;;;;;;;14.32;9.35;;;;;;;12.54;59.23;97788.41;5094383;28;20519;-52
2021/12/26 09:15:07;;;;;;;15.75;9.57;;;;;;;12.85;57.96;97788.16;5094366;28;20027;-51
2021/12/26 09:17:33;;;;;;;10.25;9.10;;;;;;;13.07;57.55;97786.41;5094300;28;20107;-51
2021/12/26 09:19:59;;;;;;;13.95;9.50;;;;;;;12.98;56.94;97788.66;5094238;28;20039;-51
2021/12/26 09:22:25;;;;;;;15.68;11.18;;;;;;;12.98;57.82;97791.28;5094270;28;20055;-51
2021/12/26 09:24:51;;;;;;;13.50;9.23;;;;;;;13.44;57.40;97788.63;5094156;28;20436;-51
2021/12/26 09:27:18;;;;;;;10.95;9.70;;;;;;;13.97;55.98;97802.28;5093535;28;20362;-51
2021/12/26 09:29:45;;;;;;;11.15;8.40;;;;;;;14.63;54.37;97799.66;5092700;28;20562;-51
2021/12/26 09:32:11;;;;;;;13.48;9.77;;;;;;;15.42;52.81;97805.38;5093816;28;20089;-49
2021/12/26 09:34:37;;;;;;;14.18;12.75;;;;;;;16.51;50.84;97797.78;5093976;28;20065;-52
2021/12/26 09:37:06;;;;;;;9.52;8.45;;;;;;;17.74;48.76;97792.53;5093876;28;20450;-51
2021/12/26 09:39:32;;;;;;;12.95;8.88;;;;;;;18.66;46.14;97797.53;5093773;28;20027;-50
2021/12/26 09:41:58;;;;;;;13.93;11.35;;;;;;;19.64;44.33;97794.16;5092527;28;20020;-52
2021/12/26 09:44:24;;;;;;;11.90;8.82;;;;;;;20.38;42.82;97791.22;5093732;28;20020;-50
2021/12/26 09:46:51;;;;;;;9.52;8.30;;;;;;;20.51;41.73;97798.53;5092403;28;20493;-49
2021/12/26 09:49:16;;;;;;;15.80;9.35;;;;;;;19.95;42.27;97797.34;5093727;28;20055;-50
2021/12/26 09:51:42;;;;;;;16.85;15.15;;;;;;;19.14;43.43;97805.75;5093590;28;20521;-49
2021/12/26 09:54:09;;;;;;;11.02;9.15;;;;;;;18.34;44.16;97811.25;5093558;28;20502;-51
2021/12/26 09:56:35;;;;;;;9.10;8.05;;;;;;;17.62;45.88;97816.72;5093530;28;20020;-52
2021/12/26 09:59:04;;;;;;;17.48;9.38;;;;;;;17.27;46.75;97815.69;5092208;28;20028;-52
2021/12/26 10:01:37;;;;;;;13.45;8.82;;;;;;;17.05;47.17;97817.78;5093462;28;20020;-51
2021/12/26 10:04:16;;;;;;;10.45;8.55;;;;;;;16.70;47.91;97817.44;5093426;28;20028;-51
2021/12/26 10:06:42;;;;;;;9.70;8.70;;;;;;;16.41;48.49;97819.72;5091970;28;20020;-52
2021/12/26 10:09:10;;;;;;;11.18;8.68;;;;;;;16.02;48.99;97820.09;5093288;28;20026;-52
2021/12/26 10:11:42;;;;;;;11.73;9.43;;;;;;;15.74;49.48;97824.69;5093532;28;20019;-52
2021/12/26 10:14:11;;;;;;;15.50;10.73;;;;;;;15.35;50.16;97826.72;5093267;28;20020;-51
2021/12/26 10:16:41;;;;;;;11.02;8.60;;;;;;;15.02;50.93;97830.41;5091799;28;20071;-51
2021/12/26 10:19:08;;;;;;;30.60;27.50;;;;;;;14.81;51.77;97827.59;5093044;28;20513;-52
2021/12/26 10:21:37;;;;;;;16.63;14.68;;;;;;;14.65;52.06;97820.53;5093054;28;20465;-52
2021/12/26 10:24:12;;;;;;;12.77;9.55;;;;;;;14.44;52.37;97811.56;5093074;28;20020;-52
2021/12/26 10:26:43;;;;;;;23.80;16.97;;;;;;;14.21;53.48;97809.97;5093068;28;20102;-51
2021/12/26 10:29:17;;;;;;;29.63;26.42;;;;;;;14.32;53.52;97801.13;5091869;28;20089;-51
2021/12/26 10:32:05;;;;;;;12.27;10.02;;;;;;;14.46;53.42;97799.69;5091314;28;20051;-52
2021/12/26 10:34:33;;;;;;;11.85;8.82;;;;;;;14.63;53.05;97797.03;5092882;28;20020;-51
2021/12/26 10:37:01;;;;;;;11.00;9.90;;;;;;;14.78;52.97;97797.16;5091440;28;20034;-51
2021/12/26 10:39:30;;;;;;;11.43;9.40;;;;;;;14.80;52.58;97783.72;5091763;28;20028;-52
2021/12/26 10:42:00;;;;;;;11.65;9.65;;;;;;;14.77;53.08;97778.94;5092652;28;20017;-51
2021/12/26 10:44:30;;;;;;;10.52;9.40;;;;;;;14.90;52.54;97778.53;5091291;28;20107;-52
2021/12/26 10:46:59;;;;;;;11.48;8.93;;;;;;;14.88;52.92;97777.19;5091582;28;20507;-52
2021/12/26 10:49:27;;;;;;;11.65;9.38;;;;;;;15.17;52.70;97775.84;5091219;28;20454;-52
2021/12/26 10:51:53;;;;;;;12.00;10.68;;;;;;;15.37;51.91;97774.41;5091161;28;20024;-52
2021/12/26 10:54:25;;;;;;;12.35;10.93;;;;;;;15.45;51.83;97783.72;5091208;28;20024;-51
2021/12/26 10:57:04;;;;;;;14.38;9.85;;;;;;;15.70;51.42;97775.16;5092496;28;20077;-51
2021/12/26 10:59:31;;;;;;;12.27;9.43;;;;;;;15.71;51.03;97780.16;5090994;28;20024;-51
2021/12/26 11:01:56;;;;;;;12.23;10.05;;;;;;;15.72;51.20;97776.53;5092376;28;20161;-52
2021/12/26 11:04:24;;;;;;;10.63;8.85;;;;;;;15.80;50.81;97771.81;5092320;28;20512;-51
2021/12/26 11:07:02;;;;;;;11.45;10.25;;;;;;;15.88;50.71;97777.41;5092312;28;20065;-51
2021/12/26 11:09:28;;;;;;;10.60;9.40;;;;;;;15.94;50.82;97770.28;5092265;28;20028;-51
2021/12/26 11:12:06;;;;;;;11.65;9.68;;;;;;;16.25;50.49;97765.13;5092258;28;20035;-51
2021/12/26 11:14:32;;;;;;;10.27;8.77;;;;;;;16.60;49.76;97771.56;5092240;28;20582;-52
2021/12/26 11:16:58;;;;;;;11.63;8.70;;;;;;;16.82;49.64;97766.06;5092176;28;20020;-51
2021/12/26 11:19:45;;;;;;;14.95;11.50;;;;;;;16.81;49.07;97767.94;5090660;28;20032;-51
2021/12/26 11:22:11;;;;;;;10.88;8.55;;;;;;;16.66;49.55;97760.72;5092041;28;20027;-51
2021/12/26 11:24:37;;;;;;;18.40;11.40;;;;;;;16.45;49.98;97761.72;5090703;28;20024;-51
2021/12/26 11:27:04;;;;;;;12.30;9.10;;;;;;;16.60;49.86;97761.78;5092014;28;20019;-52
2021/12/26 11:29:31;;;;;;;13.00;9.68;;;;;;;16.49;49.65;97766.25;5091905;28;20028;-51